Time;durP1;ratioP1;P1;durP2;ratioP2;P2;SDS_P1;SDS_P2;PMS_P1;PMS_P2;Temp;Humidity;BMP_temperature;BMP_pressure;BME280_temperature;BME280_humidity;BME280_pressure;Samples;Min_cycle;Max_cycle;Signal;HPM_P1;HPM_P2
2021/10/20 00:02:36;;;;;;;14.00;12.38;;;14.30;99.90;;;;;;5005748;28;20285;-76
2021/10/20 00:05:21;;;;;;;13.50;11.75;;;14.30;99.90;;;;;;4993018;28;20057;-76
2021/10/20 00:08:07;;;;;;;13.02;11.70;;;14.30;99.90;;;;;;5003754;28;20069;-76
2021/10/20 00:10:52;;;;;;;12.57;11.38;;;14.30;99.90;;;;;;4990269;28;20402;-76
2021/10/20 00:13:36;;;;;;;13.93;11.13;;;14.30;99.90;;;;;;4977008;28;20093;-76
2021/10/20 00:16:22;;;;;;;11.70;10.50;;;14.30;99.90;;;;;;5007203;28;20505;-76
2021/10/20 00:19:06;;;;;;;14.25;11.63;;;14.30;99.90;;;;;;4993188;28;20097;-77
2021/10/20 00:21:50;;;;;;;13.63;12.20;;;14.30;99.90;;;;;;4993455;28;20041;-75
2021/10/20 00:24:34;;;;;;;12.85;11.20;;;14.30;99.90;;;;;;4993116;28;20275;-76
2021/10/20 00:27:20;;;;;;;14.80;11.77;;;14.30;99.90;;;;;;4991790;28;20561;-77
2021/10/20 00:30:06;;;;;;;13.50;11.73;;;14.30;99.90;;;;;;5004669;28;20060;-76
2021/10/20 00:32:50;;;;;;;16.25;11.00;;;14.30;99.90;;;;;;4978398;28;20073;-75
2021/10/20 00:35:34;;;;;;;12.50;11.07;;;14.30;99.90;;;;;;4978166;28;20041;-76
2021/10/20 00:38:19;;;;;;;11.82;10.63;;;14.30;99.90;;;;;;4992104;28;20041;-76
2021/10/20 00:41:03;;;;;;;12.60;11.30;;;14.20;99.90;;;;;;4991991;28;20045;-74
2021/10/20 00:43:47;;;;;;;12.02;10.82;;;14.20;99.90;;;;;;4977664;28;20057;-76
2021/10/20 00:46:31;;;;;;;14.47;11.23;;;14.20;99.90;;;;;;4977286;28;20049;-74
2021/10/20 00:49:17;;;;;;;13.20;9.98;;;14.30;99.90;;;;;;4979138;28;20046;-75
2021/10/20 00:52:01;;;;;;;;;;;14.20;99.90;;;;;;5006800;28;20122;-76
2021/10/20 00:54:46;;;;;;;12.35;9.98;;;14.20;99.90;;;;;;5005272;28;19944;-76
2021/10/20 00:57:31;;;;;;;11.27;10.18;;;14.30;99.90;;;;;;4990539;28;20074;-77
2021/10/20 01:00:16;;;;;;;11.88;10.60;;;14.30;99.90;;;;;;5006240;28;20042;-76
2021/10/20 01:03:01;;;;;;;11.65;10.13;;;14.20;99.90;;;;;;5007183;28;20061;-76
2021/10/20 01:05:46;;;;;;;12.98;10.40;;;14.20;99.90;;;;;;4992975;28;20045;-76
2021/10/20 01:08:30;;;;;;;11.63;10.48;;;14.20;99.90;;;;;;4977059;28;20045;-75
2021/10/20 01:11:14;;;;;;;12.30;11.02;;;14.10;99.90;;;;;;4989226;28;20045;-76
2021/10/20 01:13:59;;;;;;;12.85;11.38;;;14.10;99.90;;;;;;4990447;28;20057;-77
2021/10/20 01:16:43;;;;;;;12.05;10.00;;;14.10;99.90;;;;;;5004110;28;20089;-76
2021/10/20 01:19:28;;;;;;;12.05;10.75;;;14.10;99.90;;;;;;4988019;28;20094;-77
2021/10/20 01:22:13;;;;;;;12.18;10.88;;;14.00;99.90;;;;;;4991443;28;20061;-76
2021/10/20 01:24:59;;;;;;;13.77;11.20;;;14.00;99.90;;;;;;4992224;28;20068;-76
2021/10/20 01:27:44;;;;;;;12.68;10.45;;;14.00;99.90;;;;;;4990559;28;20042;-75
2021/10/20 01:30:28;;;;;;;11.60;10.40;;;13.90;99.90;;;;;;4989990;28;20041;-76
2021/10/20 01:33:13;;;;;;;14.02;11.57;;;14.00;99.90;;;;;;4995696;28;20066;-76
2021/10/20 01:35:57;;;;;;;11.32;10.02;;;13.90;99.90;;;;;;5012623;28;20044;-76
2021/10/20 01:38:41;;;;;;;11.75;9.73;;;14.00;99.90;;;;;;4998019;28;20093;-76
2021/10/20 01:41:26;;;;;;;12.70;9.45;;;14.00;99.90;;;;;;4996273;28;20087;-77
2021/10/20 01:44:11;;;;;;;12.85;10.05;;;14.00;99.90;;;;;;5010091;28;20061;-78
2021/10/20 01:46:56;;;;;;;10.32;9.23;;;14.00;99.90;;;;;;4999033;28;20041;-76
2021/10/20 01:49:41;;;;;;;12.93;9.80;;;14.10;99.90;;;;;;4997127;28;20060;-76
2021/10/20 01:52:26;;;;;;;12.00;9.63;;;14.10;99.90;;;;;;4982821;28;20060;-77
2021/10/20 01:55:16;;;;;;;10.73;9.48;;;14.10;99.90;;;;;;4983245;28;20501;-76
2021/10/20 01:58:00;;;;;;;10.07;9.05;;;14.20;99.90;;;;;;4998669;28;20076;-76
2021/10/20 02:00:45;;;;;;;11.10;9.90;;;14.20;99.90;;;;;;5012627;28;20042;-76
2021/10/20 02:03:30;;;;;;;10.80;8.73;;;14.20;99.90;;;;;;5000126;28;20038;-76
2021/10/20 02:06:16;;;;;;;11.00;9.80;;;14.30;99.90;;;;;;4983261;28;20061;-75
2021/10/20 02:09:02;;;;;;;10.05;9.00;;;14.40;99.90;;;;;;4993852;28;20374;-76
2021/10/20 02:11:46;;;;;;;11.35;8.93;;;14.30;99.90;;;;;;5005300;28;20089;-77
2021/10/20 02:14:31;;;;;;;10.88;8.88;;;14.30;99.90;;;;;;4989286;28;20041;-76
2021/10/20 02:17:15;;;;;;;9.68;8.18;;;14.30;99.90;;;;;;5007087;28;20061;-76
2021/10/20 02:19:59;;;;;;;9.83;8.83;;;14.30;99.90;;;;;;4999437;28;20062;-76
2021/10/20 02:22:44;;;;;;;;;;;14.30;99.90;;;;;;4999474;28;20037;-76
2021/10/20 02:25:28;;;;;;;10.73;8.98;;;14.30;99.90;;;;;;4996636;28;19964;-76
2021/10/20 02:28:12;;;;;;;9.43;8.53;;;14.30;99.90;;;;;;5004219;28;20037;-76
2021/10/20 02:30:56;;;;;;;10.18;9.10;;;14.30;99.90;;;;;;5004623;28;20117;-76
2021/10/20 02:33:41;;;;;;;9.30;8.35;;;14.20;99.90;;;;;;4989931;28;20044;-76
2021/10/20 02:36:26;;;;;;;10.85;8.18;;;14.30;99.90;;;;;;4977865;28;20046;-76
2021/10/20 02:39:11;;;;;;;11.52;9.63;;;14.30;99.90;;;;;;5005309;28;20120;-76
2021/10/20 02:41:55;;;;;;;12.63;8.68;;;14.30;99.90;;;;;;4989822;28;20098;-76
2021/10/20 02:44:39;;;;;;;12.55;9.40;;;14.30;99.90;;;;;;4989790;28;20504;-76
2021/10/20 02:47:24;;;;;;;11.75;9.30;;;14.30;99.90;;;;;;4988746;28;20421;-76
2021/10/20 02:50:09;;;;;;;10.20;8.60;;;14.20;99.90;;;;;;5003179;28;20042;-75
2021/10/20 02:52:54;;;;;;;8.65;7.85;;;14.20;99.90;;;;;;5003912;28;20054;-77
2021/10/20 02:55:40;;;;;;;11.30;9.02;;;14.20;99.90;;;;;;4989737;28;20046;-76
2021/10/20 02:58:24;;;;;;;9.68;8.65;;;14.10;99.90;;;;;;4976888;28;20046;-76
2021/10/20 03:01:08;;;;;;;11.88;9.05;;;14.10;99.90;;;;;;4991050;28;20072;-75
2021/10/20 03:03:52;;;;;;;9.10;8.18;;;14.10;99.90;;;;;;4989827;28;20057;-75
2021/10/20 03:06:37;;;;;;;9.97;8.67;;;14.10;99.90;;;;;;4987324;28;20557;-75
2021/10/20 03:09:21;;;;;;;11.20;8.45;;;14.10;99.90;;;;;;5002214;28;20268;-76
2021/10/20 03:12:05;;;;;;;10.98;8.82;;;14.10;99.90;;;;;;4990053;28;20040;-76
2021/10/20 03:14:50;;;;;;;10.07;9.07;;;14.10;99.90;;;;;;5004601;28;20041;-76
2021/10/20 03:17:34;;;;;;;10.05;7.97;;;14.10;99.90;;;;;;4975908;28;20546;-76
2021/10/20 03:20:18;;;;;;;10.40;8.27;;;14.10;99.90;;;;;;5004199;28;20041;-77
2021/10/20 03:23:02;;;;;;;10.00;8.20;;;14.10;99.90;;;;;;4988604;28;20042;-76
2021/10/20 03:25:46;;;;;;;15.70;8.32;;;14.10;99.90;;;;;;4975181;28;20513;-76
2021/10/20 03:28:30;;;;;;;9.33;7.97;;;14.10;99.90;;;;;;4975376;28;20509;-76
2021/10/20 03:31:16;;;;;;;10.77;8.43;;;14.10;99.90;;;;;;4989939;28;20061;-75
2021/10/20 03:34:02;;;;;;;14.23;8.98;;;14.20;99.90;;;;;;4989167;28;20333;-76
2021/10/20 03:36:46;;;;;;;10.73;8.00;;;14.20;99.90;;;;;;5005416;28;20077;-75
2021/10/20 03:39:30;;;;;;;10.30;8.30;;;14.20;99.90;;;;;;4975721;28;20045;-76
2021/10/20 03:42:14;;;;;;;8.88;7.97;;;14.20;99.90;;;;;;4991023;28;20077;-75
2021/10/20 03:44:59;;;;;;;11.27;8.35;;;14.30;99.90;;;;;;5007407;28;20088;-75
2021/10/20 03:47:44;;;;;;;9.60;8.52;;;14.20;99.90;;;;;;5006925;28;20413;-74
2021/10/20 03:50:28;;;;;;;10.30;8.43;;;14.30;99.90;;;;;;5005747;28;20457;-76
2021/10/20 03:53:12;;;;;;;9.50;8.37;;;14.30;99.90;;;;;;4974263;28;20119;-75
2021/10/20 03:55:56;;;;;;;9.65;8.65;;;14.30;99.90;;;;;;5001821;28;20041;-76
2021/10/20 03:58:40;;;;;;;10.10;8.57;;;14.30;99.90;;;;;;5002680;28;20513;-76
2021/10/20 04:01:25;;;;;;;15.52;9.23;;;14.30;99.90;;;;;;4988905;28;20257;-75
2021/10/20 04:04:09;;;;;;;10.68;9.32;;;14.30;99.90;;;;;;4972924;28;20130;-76
2021/10/20 04:06:53;;;;;;;8.73;7.90;;;14.20;99.90;;;;;;4995999;28;20094;-77
2021/10/20 04:09:37;;;;;;;9.57;7.55;;;14.20;99.90;;;;;;4995891;28;20085;-76
2021/10/20 04:12:21;;;;;;;9.35;7.47;;;14.30;99.90;;;;;;4995429;28;20460;-77
2021/10/20 04:15:06;;;;;;;8.65;7.15;;;14.20;99.90;;;;;;4985027;28;20521;-75
2021/10/20 04:17:50;;;;;;;10.18;8.10;;;14.20;99.90;;;;;;4985603;28;20045;-77
2021/10/20 04:20:34;;;;;;;10.65;7.75;;;14.20;99.90;;;;;;4999142;28;20049;-76
2021/10/20 04:23:19;;;;;;;10.57;7.82;;;14.20;99.90;;;;;;5012921;28;20053;-76
2021/10/20 04:26:03;;;;;;;11.82;7.88;;;14.20;99.90;;;;;;5011923;28;20036;-76
2021/10/20 04:28:47;;;;;;;9.30;8.35;;;14.20;99.90;;;;;;4983554;28;20049;-75
2021/10/20 04:31:31;;;;;;;10.85;8.25;;;14.20;99.90;;;;;;4998292;28;20069;-76
2021/10/20 04:34:16;;;;;;;12.98;8.63;;;14.30;99.90;;;;;;4997714;28;20093;-77
2021/10/20 04:37:00;;;;;;;13.90;7.75;;;14.30;99.90;;;;;;5011546;28;20037;-77
2021/10/20 04:39:44;;;;;;;9.90;8.35;;;14.30;99.80;;;;;;4983286;28;20041;-77
2021/10/20 04:42:30;;;;;;;9.23;8.25;;;14.30;99.70;;;;;;4999621;28;20041;-75
2021/10/20 04:45:14;;;;;;;12.35;8.63;;;14.30;99.40;;;;;;5008644;28;20045;-77
2021/10/20 04:47:59;;;;;;;18.75;9.35;;;14.20;99.50;;;;;;4978942;28;20038;-75
2021/10/20 04:50:43;;;;;;;13.07;9.45;;;14.30;99.60;;;;;;5006795;28;20564;-77
2021/10/20 04:53:27;;;;;;;24.88;9.48;;;14.20;99.60;;;;;;5008474;28;20037;-76
2021/10/20 04:56:11;;;;;;;33.57;10.10;;;14.20;99.70;;;;;;4992363;28;20473;-75
2021/10/20 04:58:55;;;;;;;9.50;8.02;;;14.20;99.60;;;;;;4992711;28;20300;-76
2021/10/20 05:01:40;;;;;;;12.45;8.27;;;14.20;99.50;;;;;;4979203;28;20045;-77
2021/10/20 05:04:24;;;;;;;20.55;9.80;;;14.10;99.60;;;;;;5005120;28;20085;-76
2021/10/20 05:07:11;;;;;;;10.13;7.65;;;14.10;99.40;;;;;;5007429;28;20116;-76
2021/10/20 05:09:55;;;;;;;10.77;7.88;;;14.00;99.50;;;;;;4981520;28;20099;-76
2021/10/20 05:12:40;;;;;;;10.55;7.68;;;14.10;99.50;;;;;;4975837;28;20057;-76
2021/10/20 05:15:24;;;;;;;9.25;7.78;;;14.10;99.40;;;;;;4988682;28;20040;-77
2021/10/20 05:18:10;;;;;;;20.55;7.65;;;14.20;99.20;;;;;;4991410;28;20041;-76
2021/10/20 05:20:54;;;;;;;20.63;7.35;;;14.10;99.00;;;;;;4990779;28;20426;-77
2021/10/20 05:23:38;;;;;;;21.48;7.78;;;14.10;99.10;;;;;;4975385;28;20085;-77
2021/10/20 05:26:23;;;;;;;8.18;7.18;;;14.10;99.10;;;;;;4988695;28;20180;-76
2021/10/20 05:29:07;;;;;;;38.90;10.82;;;14.20;98.70;;;;;;4990379;28;20053;-76
2021/10/20 05:31:52;;;;;;;19.38;8.80;;;14.10;98.70;;;;;;4975465;28;20088;-77
2021/10/20 05:34:36;;;;;;;12.30;7.65;;;14.20;98.60;;;;;;4990869;28;20037;-76
2021/10/20 05:37:20;;;;;;;13.80;9.43;;;14.10;98.50;;;;;;4991628;28;20045;-77
2021/10/20 05:40:05;;;;;;;10.63;6.97;;;14.10;98.50;;;;;;4990771;28;20572;-76
2021/10/20 05:42:50;;;;;;;10.00;6.65;;;14.20;98.50;;;;;;5005598;28;20099;-76
2021/10/20 05:45:34;;;;;;;11.40;6.97;;;14.20;98.40;;;;;;4987280;28;20069;-75
2021/10/20 05:48:22;;;;;;;10.60;6.80;;;14.20;98.30;;;;;;5002143;28;20050;-75
2021/10/20 05:51:06;;;;;;;10.13;7.63;;;14.20;98.20;;;;;;5007624;28;20069;-74
2021/10/20 05:53:51;;;;;;;12.00;6.95;;;14.20;98.10;;;;;;4994275;28;20113;-75
2021/10/20 05:56:35;;;;;;;16.00;10.60;;;14.20;98.00;;;;;;4992313;28;20057;-75
2021/10/20 05:59:23;;;;;;;18.17;12.40;;;14.20;98.00;;;;;;5006478;28;20121;-75
2021/10/20 06:02:11;;;;;;;8.88;6.47;;;14.20;97.90;;;;;;5009042;28;20264;-75
2021/10/20 06:04:55;;;;;;;9.00;6.68;;;14.20;97.50;;;;;;4995367;28;20053;-75
2021/10/20 06:07:41;;;;;;;10.93;6.50;;;14.20;97.70;;;;;;5004924;28;20037;-76
2021/10/20 06:10:25;;;;;;;12.95;7.03;;;14.20;97.70;;;;;;5024869;28;20049;-75
2021/10/20 06:13:10;;;;;;;9.95;7.30;;;14.20;97.90;;;;;;5025067;28;20033;-75
2021/10/20 06:15:54;;;;;;;8.67;6.27;;;14.20;97.60;;;;;;5026912;28;20045;-75
2021/10/20 06:18:38;;;;;;;23.67;13.82;;;14.30;97.60;;;;;;5024470;28;20348;-75
2021/10/20 06:21:23;;;;;;;18.40;12.02;;;14.30;97.60;;;;;;5025206;28;20053;-75
2021/10/20 06:24:07;;;;;;;10.55;7.47;;;14.30;97.50;;;;;;5026559;28;20068;-75
2021/10/20 06:26:51;;;;;;;9.10;7.35;;;14.30;97.40;;;;;;5027367;28;20469;-75
2021/10/20 06:29:36;;;;;;;10.63;7.00;;;14.30;97.40;;;;;;5012439;28;20064;-76
2021/10/20 06:32:20;;;;;;;9.30;6.93;;;14.20;97.30;;;;;;5024049;28;20049;-75
2021/10/20 06:35:04;;;;;;;9.52;6.03;;;14.30;96.90;;;;;;5024215;28;20052;-76
2021/10/20 06:37:54;;;;;;;10.93;6.47;;;14.40;96.50;;;;;;5026770;28;20735;-76
2021/10/20 06:40:38;;;;;;;12.65;9.07;;;14.50;96.10;;;;;;5010305;28;20088;-77
2021/10/20 06:43:22;;;;;;;9.80;6.85;;;14.50;95.80;;;;;;5019952;28;20069;-77
2021/10/20 06:46:08;;;;;;;8.50;6.30;;;14.50;95.90;;;;;;5001025;28;20068;-78
2021/10/20 06:48:52;;;;;;;8.23;6.13;;;14.60;95.60;;;;;;4995947;28;20034;-78
2021/10/20 06:51:36;;;;;;;10.07;6.23;;;14.70;95.10;;;;;;5009347;28;20053;-77
2021/10/20 06:54:20;;;;;;;10.10;5.68;;;14.80;94.90;;;;;;5008177;28;20292;-78
2021/10/20 06:57:05;;;;;;;6.82;5.20;;;15.00;94.30;;;;;;5023790;28;20041;-78
2021/10/20 06:59:49;;;;;;;7.87;5.30;;;15.10;93.80;;;;;;5023115;28;20065;-77
2021/10/20 07:02:33;;;;;;;7.03;5.53;;;15.20;93.80;;;;;;4995076;28;20364;-80
2021/10/20 07:05:17;;;;;;;7.13;5.17;;;15.20;93.90;;;;;;4997712;28;20548;-80
2021/10/20 07:08:01;;;;;;;6.20;5.13;;;15.30;93.50;;;;;;5026106;28;20072;-81
2021/10/20 07:10:48;;;;;;;8.15;5.40;;;15.40;93.30;;;;;;5011315;28;20061;-80
2021/10/20 07:13:32;;;;;;;11.43;5.03;;;15.50;93.20;;;;;;4997150;28;20044;-79
2021/10/20 07:16:17;;;;;;;8.65;5.22;;;15.50;92.70;;;;;;4997246;28;20104;-80
2021/10/20 07:19:06;;;;;;;5.65;4.80;;;15.60;92.80;;;;;;5011890;28;20045;-79
2021/10/20 07:21:50;;;;;;;5.90;4.63;;;15.60;92.90;;;;;;5011270;28;20029;-79
2021/10/20 07:24:35;;;;;;;7.80;5.25;;;15.70;92.70;;;;;;5011965;28;20088;-80
2021/10/20 07:27:19;;;;;;;;;;;15.80;92.60;;;;;;4996095;28;20073;-78
2021/10/20 07:30:08;;;;;;;13.25;5.68;;;15.90;92.40;;;;;;5012199;28;19917;-80
2021/10/20 07:32:53;;;;;;;12.70;5.38;;;15.90;92.20;;;;;;5011302;28;20032;-80
2021/10/20 07:35:40;;;;;;;15.82;5.72;;;16.00;92.10;;;;;;4997143;28;20098;-80
2021/10/20 07:38:24;;;;;;;19.33;5.65;;;16.10;92.10;;;;;;4983017;28;20049;-78
2021/10/20 07:41:08;;;;;;;8.90;4.88;;;16.20;92.00;;;;;;4982138;28;20041;-78
2021/10/20 07:43:52;;;;;;;13.00;5.10;;;16.20;91.60;;;;;;4997923;28;20044;-78
2021/10/20 07:46:37;;;;;;;8.77;4.70;;;16.20;91.70;;;;;;5013458;28;20028;-78
2021/10/20 07:49:21;;;;;;;7.68;4.82;;;16.30;91.40;;;;;;4982427;28;20094;-77
2021/10/20 07:52:05;;;;;;;9.85;5.15;;;16.30;91.40;;;;;;4994149;28;20040;-78
2021/10/20 07:54:50;;;;;;;7.53;4.93;;;16.40;91.30;;;;;;4994293;28;20037;-78
2021/10/20 07:57:35;;;;;;;11.38;4.70;;;16.40;91.40;;;;;;5007720;28;20528;-78
2021/10/20 08:00:20;;;;;;;8.88;4.75;;;16.40;91.40;;;;;;5022625;28;20032;-78
2021/10/20 08:03:05;;;;;;;5.68;5.00;;;16.40;91.30;;;;;;5009912;28;20436;-78
2021/10/20 08:05:49;;;;;;;7.18;4.93;;;16.40;91.30;;;;;;4996342;28;20128;-76
2021/10/20 08:08:33;;;;;;;4.70;4.20;;;16.40;91.20;;;;;;4997849;28;20048;-77
2021/10/20 08:11:18;;;;;;;6.40;4.88;;;16.50;91.00;;;;;;5001046;28;20041;-78
2021/10/20 08:14:03;;;;;;;6.78;5.38;;;16.50;91.10;;;;;;5002950;28;20041;-78
2021/10/20 08:16:48;;;;;;;6.63;4.38;;;16.50;91.10;;;;;;5003725;28;20037;-77
2021/10/20 08:19:32;;;;;;;5.80;4.60;;;16.50;90.80;;;;;;5018272;28;20033;-76
2021/10/20 08:22:16;;;;;;;7.20;4.68;;;16.60;90.90;;;;;;4989083;28;20415;-77
2021/10/20 08:25:00;;;;;;;6.00;4.40;;;16.70;90.70;;;;;;5003691;28;20044;-76
2021/10/20 08:27:45;;;;;;;8.23;4.75;;;16.70;90.60;;;;;;5012546;28;20089;-77
2021/10/20 08:30:29;;;;;;;5.82;4.00;;;16.80;90.70;;;;;;5014211;28;20098;-81
2021/10/20 08:33:16;;;;;;;5.90;4.63;;;16.90;90.50;;;;;;4997286;28;20092;-77
2021/10/20 08:36:00;;;;;;;4.72;4.18;;;17.00;90.40;;;;;;5010710;28;20069;-76
2021/10/20 08:38:44;;;;;;;8.27;4.65;;;17.00;90.60;;;;;;4998224;28;20037;-76
2021/10/20 08:41:29;;;;;;;7.57;3.83;;;17.10;90.30;;;;;;4999790;28;20045;-76
2021/10/20 08:44:13;;;;;;;6.28;4.55;;;17.10;89.60;;;;;;5000544;28;20287;-76
2021/10/20 08:46:59;;;;;;;7.53;4.22;;;17.20;90.10;;;;;;4995676;28;20049;-78
2021/10/20 08:49:44;;;;;;;8.98;4.45;;;17.20;89.60;;;;;;5023894;28;20036;-79
2021/10/20 08:52:28;;;;;;;7.25;4.68;;;17.30;89.70;;;;;;4996082;28;20113;-79
2021/10/20 08:55:14;;;;;;;7.63;4.57;;;17.30;90.10;;;;;;5008865;28;20409;-79
2021/10/20 08:58:00;;;;;;;5.32;4.80;;;17.30;90.20;;;;;;4996244;28;20156;-79
2021/10/20 09:00:45;;;;;;;5.90;4.60;;;17.40;89.70;;;;;;4997143;28;20090;-78
2021/10/20 09:03:30;;;;;;;7.00;5.00;;;17.40;89.80;;;;;;5011201;28;20644;-76
2021/10/20 09:06:15;;;;;;;6.78;4.90;;;17.50;89.60;;;;;;4997466;28;20044;-76
2021/10/20 09:09:02;;;;;;;7.57;4.80;;;17.40;89.70;;;;;;4987122;28;20107;-77
2021/10/20 09:11:47;;;;;;;10.00;4.90;;;17.40;90.00;;;;;;5013261;28;20040;-76
2021/10/20 09:14:32;;;;;;;8.15;4.70;;;17.50;90.00;;;;;;4998833;28;20164;-76
2021/10/20 09:17:16;;;;;;;7.97;5.07;;;17.50;89.30;;;;;;5013360;28;20045;-77
2021/10/20 09:20:14;;;;;;;6.78;5.43;;;17.40;89.60;;;;;;5013582;28;20156;-77
2021/10/20 09:23:05;;;;;;;9.18;4.82;;;17.50;89.30;;;;;;5013237;28;20389;-77
2021/10/20 09:26:01;;;;;;;6.55;4.60;;;17.50;89.80;;;;;;5015726;28;20128;-77
2021/10/20 09:28:45;;;;;;;10.38;4.78;;;17.60;90.00;;;;;;5009632;28;20037;-76
2021/10/20 09:31:30;;;;;;;8.23;5.57;;;17.60;89.90;;;;;;5009964;28;20041;-76
2021/10/20 09:34:14;;;;;;;8.32;4.70;;;17.70;89.30;;;;;;5009966;28;20053;-76
2021/10/20 09:37:01;;;;;;;5.45;4.35;;;17.80;89.00;;;;;;4998609;28;20064;-78
2021/10/20 09:39:45;;;;;;;8.65;4.93;;;17.90;89.20;;;;;;5012912;28;20049;-78
2021/10/20 09:42:29;;;;;;;5.80;4.70;;;17.90;88.70;;;;;;5013237;28;20041;-79
2021/10/20 09:45:16;;;;;;;16.25;5.07;;;17.90;88.70;;;;;;4984292;28;20053;-79
2021/10/20 09:48:12;;;;;;;6.45;4.50;;;17.90;88.40;;;;;;4997492;28;20070;-79
2021/10/20 09:51:13;;;;;;;5.22;4.50;;;17.90;88.20;;;;;;5011326;28;20064;-79
2021/10/20 09:53:57;;;;;;;7.18;4.75;;;18.00;88.00;;;;;;4997963;28;20556;-79
2021/10/20 09:56:42;;;;;;;16.23;5.15;;;18.10;88.00;;;;;;4998602;28;20049;-78
2021/10/20 09:59:28;;;;;;;11.35;5.35;;;18.20;88.10;;;;;;4998556;28;20073;-79
2021/10/20 10:02:12;;;;;;;7.72;4.70;;;18.30;88.10;;;;;;4998011;28;20041;-80
2021/10/20 10:04:56;;;;;;;;;;;18.30;87.40;;;;;;5026587;28;20087;-78
2021/10/20 10:07:41;;;;;;;10.98;4.50;;;18.30;87.20;;;;;;5010894;28;19911;-81
2021/10/20 10:10:25;;;;;;;7.65;5.00;;;18.30;86.80;;;;;;4997007;28;20041;-77
2021/10/20 10:13:16;;;;;;;5.72;4.57;;;18.40;87.00;;;;;;5027124;28;20048;-78
2021/10/20 10:16:02;;;;;;;9.13;4.95;;;18.50;86.50;;;;;;5010817;28;20068;-78
2021/10/20 10:18:47;;;;;;;7.40;4.63;;;18.50;86.90;;;;;;5007565;28;20120;-78
2021/10/20 10:21:41;;;;;;;5.78;5.03;;;18.60;86.40;;;;;;4994579;28;20108;-78
2021/10/20 10:24:35;;;;;;;7.80;4.80;;;18.80;86.10;;;;;;5009381;28;20118;-78
2021/10/20 10:27:20;;;;;;;6.18;5.15;;;19.00;86.50;;;;;;5010879;28;20041;-76
2021/10/20 10:30:26;;;;;;;5.15;4.65;;;19.30;86.00;;;;;;5010440;28;20045;-77
2021/10/20 10:33:20;;;;;;;6.38;4.90;;;19.40;85.80;;;;;;5010047;28;20041;-78
2021/10/20 10:36:18;;;;;;;6.40;5.00;;;19.40;85.40;;;;;;5022182;28;20040;-77
2021/10/20 10:39:04;;;;;;;6.30;4.63;;;19.50;85.80;;;;;;5009947;28;20072;-77
2021/10/20 10:41:49;;;;;;;7.60;5.47;;;19.60;86.00;;;;;;5008712;28;20448;-77
2021/10/20 10:44:50;;;;;;;6.05;4.95;;;19.70;86.20;;;;;;5010132;28;20037;-78
2021/10/20 10:47:34;;;;;;;5.68;4.72;;;19.80;86.30;;;;;;5011492;28;20076;-79
2021/10/20 10:50:18;;;;;;;6.13;4.90;;;20.00;85.70;;;;;;5009650;28;20413;-78
2021/10/20 10:53:04;;;;;;;8.75;5.10;;;20.10;85.30;;;;;;5008506;28;20033;-78
2021/10/20 10:56:13;;;;;;;6.65;4.95;;;20.00;85.00;;;;;;5009060;28;20037;-78
2021/10/20 10:59:07;;;;;;;5.35;4.85;;;20.00;85.20;;;;;;4999307;28;20041;-77
2021/10/20 11:01:51;;;;;;;6.28;5.15;;;19.90;85.90;;;;;;4995671;28;20045;-79
2021/10/20 11:04:35;;;;;;;6.83;4.70;;;19.80;86.10;;;;;;5008997;28;20045;-78
2021/10/20 11:07:20;;;;;;;;;;;19.90;86.50;;;;;;5026320;28;20087;-77
2021/10/20 11:10:05;;;;;;;;;;;20.00;86.50;;;;;;4997348;28;19920;-78
2021/10/20 11:12:51;;;;;;;6.25;5.00;;;20.00;86.80;;;;;;4995974;28;20328;-78
2021/10/20 11:15:36;;;;;;;6.13;5.10;;;20.10;86.10;;;;;;5010012;28;20064;-78
2021/10/20 11:18:24;;;;;;;7.03;4.60;;;20.00;86.90;;;;;;4994700;28;20075;-77
2021/10/20 11:21:09;;;;;;;7.15;5.75;;;20.00;86.70;;;;;;5022602;28;20040;-78
2021/10/20 11:23:54;;;;;;;6.80;4.70;;;19.90;86.30;;;;;;4993335;28;20092;-77
2021/10/20 11:26:37;;;;;;;7.55;5.28;;;20.00;86.50;;;;;;5007826;28;20501;-77
2021/10/20 11:29:22;;;;;;;7.90;5.32;;;20.00;86.50;;;;;;4994326;28;20060;-78
2021/10/20 11:32:10;;;;;;;8.95;4.95;;;20.00;86.50;;;;;;4992559;28;20037;-77
2021/10/20 11:34:54;;;;;;;5.75;5.10;;;20.00;86.30;;;;;;5006787;28;20104;-78
2021/10/20 11:37:39;;;;;;;7.70;5.32;;;20.00;85.50;;;;;;4994114;28;20453;-78
2021/10/20 11:40:25;;;;;;;6.18;4.85;;;19.90;85.90;;;;;;5006651;28;20049;-77
2021/10/20 11:43:16;;;;;;;7.25;5.03;;;19.90;85.50;;;;;;5007121;28;20394;-78
2021/10/20 11:46:02;;;;;;;7.65;4.57;;;19.90;85.90;;;;;;5007529;28;20096;-78
2021/10/20 11:48:46;;;;;;;5.70;4.72;;;19.90;86.40;;;;;;5007061;28;20040;-77
2021/10/20 11:51:31;;;;;;;14.75;6.00;;;19.90;86.30;;;;;;5007777;28;20045;-77
2021/10/20 11:54:16;;;;;;;8.10;5.35;;;19.90;87.00;;;;;;5022033;28;20508;-75
2021/10/20 11:57:03;;;;;;;5.22;4.70;;;19.90;87.10;;;;;;4994440;28;20049;-76
2021/10/20 11:59:48;;;;;;;7.03;4.95;;;19.90;86.70;;;;;;4994944;28;20037;-77
2021/10/20 12:02:34;;;;;;;6.70;5.40;;;19.90;86.30;;;;;;4994522;28;20180;-78
2021/10/20 12:05:18;;;;;;;5.72;4.68;;;19.90;86.60;;;;;;4993253;28;20045;-79
2021/10/20 12:08:05;;;;;;;7.15;4.82;;;19.90;86.40;;;;;;5008252;28;20091;-80
2021/10/20 12:10:49;;;;;;;5.90;5.00;;;19.80;86.40;;;;;;4995653;28;20045;-78
2021/10/20 12:13:38;;;;;;;7.10;4.93;;;19.80;86.40;;;;;;4993382;28;20172;-78
2021/10/20 12:16:23;;;;;;;8.18;4.80;;;19.80;86.50;;;;;;5008303;28;20068;-77
2021/10/20 12:19:10;;;;;;;10.10;5.15;;;19.90;86.50;;;;;;5005193;28;20159;-79
2021/10/20 12:21:54;;;;;;;7.80;5.45;;;19.80;86.30;;;;;;5009228;28;20048;-78
2021/10/20 12:24:43;;;;;;;5.72;5.13;;;19.90;86.60;;;;;;5026795;28;20087;-76
2021/10/20 12:27:27;;;;;;;8.75;5.32;;;19.90;86.70;;;;;;5025349;28;20560;-77
2021/10/20 12:30:13;;;;;;;;;;;19.90;86.70;;;;;;4996002;28;20052;-77
2021/10/20 12:33:05;;;;;;;;;;;19.90;86.70;;;;;;5012007;28;19920;-77
2021/10/20 12:35:50;;;;;;;5.82;4.95;;;20.00;86.70;;;;;;5026973;28;19932;-77
2021/10/20 12:38:37;;;;;;;6.32;4.70;;;20.00;86.30;;;;;;4998301;28;20061;-79
2021/10/20 12:41:28;;;;;;;6.82;5.20;;;20.10;85.50;;;;;;5010322;28;20036;-78
2021/10/20 12:44:13;;;;;;;8.80;4.75;;;20.10;84.40;;;;;;5026593;28;20113;-78
2021/10/20 12:46:58;;;;;;;8.50;5.03;;;20.00;84.40;;;;;;4990523;28;20084;-78
2021/10/20 12:49:47;;;;;;;5.07;4.40;;;19.90;83.80;;;;;;5000503;28;20079;-77
2021/10/20 12:52:35;;;;;;;7.00;4.80;;;19.90;83.80;;;;;;4985982;28;20512;-77
2021/10/20 12:55:21;;;;;;;5.78;4.50;;;19.90;84.00;;;;;;4999481;28;20457;-82
2021/10/20 12:58:16;;;;;;;8.55;4.85;;;19.90;83.60;;;;;;5014349;28;20036;-78
2021/10/20 13:01:00;;;;;;;7.03;4.47;;;19.90;83.80;;;;;;5015336;28;20501;-78
2021/10/20 13:03:44;;;;;;;8.00;5.00;;;20.00;84.20;;;;;;5000589;28;20208;-78
2021/10/20 13:06:29;;;;;;;8.50;5.20;;;19.90;84.90;;;;;;4986524;28;20107;-76
2021/10/20 13:09:15;;;;;;;;;;;19.90;85.00;;;;;;5000660;28;20092;-78
2021/10/20 13:11:59;;;;;;;6.95;4.57;;;19.80;85.00;;;;;;5000619;28;19955;-77
2021/10/20 13:14:43;;;;;;;7.45;5.57;;;19.70;85.80;;;;;;5007216;28;20080;-75
2021/10/20 13:17:27;;;;;;;9.80;5.40;;;19.60;86.30;;;;;;4992447;28;20041;-76
2021/10/20 13:20:13;;;;;;;;;;;19.50;86.80;;;;;;5005430;28;20114;-77
2021/10/20 13:23:01;;;;;;;6.65;5.15;;;19.50;87.10;;;;;;5004896;28;19990;-78
2021/10/20 13:25:46;;;;;;;8.55;5.05;;;19.50;87.60;;;;;;5017774;28;20045;-77
2021/10/20 13:28:32;;;;;;;7.20;4.45;;;19.50;87.50;;;;;;4991893;28;20111;-77
2021/10/20 13:31:18;;;;;;;9.27;4.57;;;19.50;87.60;;;;;;5012766;28;20114;-76
2021/10/20 13:34:02;;;;;;;7.65;4.90;;;19.60;87.90;;;;;;5028389;28;20059;-75
2021/10/20 13:36:46;;;;;;;5.40;4.85;;;19.50;88.60;;;;;;5000458;28;20045;-76
2021/10/20 13:39:32;;;;;;;8.35;5.13;;;19.40;88.80;;;;;;4999858;28;20044;-75
2021/10/20 13:42:15;;;;;;;7.45;5.22;;;19.40;89.20;;;;;;4986075;28;20041;-76
2021/10/20 13:45:06;;;;;;;5.78;5.07;;;19.40;89.20;;;;;;4997595;28;20052;-76
2021/10/20 13:47:50;;;;;;;6.10;4.68;;;19.50;88.80;;;;;;5022556;28;20037;-75
2021/10/20 13:50:35;;;;;;;6.85;5.35;;;19.40;89.50;;;;;;5006963;28;20044;-76
2021/10/20 13:53:19;;;;;;;;;;;19.30;90.00;;;;;;5025186;28;20041;-78
2021/10/20 13:56:04;;;;;;;8.02;5.70;;;19.20;90.40;;;;;;5008231;28;19920;-77
2021/10/20 13:58:48;;;;;;;5.68;5.10;;;19.20;90.50;;;;;;4979705;28;20508;-77
2021/10/20 14:01:32;;;;;;;8.70;5.30;;;19.10;90.90;;;;;;4996651;28;20025;-78
2021/10/20 14:04:20;;;;;;;10.30;6.00;;;19.10;90.90;;;;;;5008784;28;20040;-77
2021/10/20 14:07:08;;;;;;;11.40;5.82;;;18.90;91.10;;;;;;5022591;28;20053;-78
2021/10/20 14:09:53;;;;;;;8.60;5.80;;;18.80;91.30;;;;;;5007810;28;20041;-79
2021/10/20 14:12:40;;;;;;;9.38;6.00;;;18.80;91.50;;;;;;5026242;28;20107;-79
2021/10/20 14:15:24;;;;;;;10.35;5.60;;;18.80;91.50;;;;;;4997188;28;20049;-78
2021/10/20 14:18:09;;;;;;;8.90;5.50;;;18.70;91.70;;;;;;5010504;28;20081;-78